Historique des stations

Station météo de Athée-sur-Cher

Altitude de la station : 93 m







Données météorologiques pour le 25/09/2022
Date
Heure
Températures Humidité Point de rosée Vitesse
du vent
Direction Rafales Windchill Pression Pluviométrie
Cumul
Date
Heure
Températures Humidité Point de rosée Vitesse
du vent
Direction Rafales Windchill Pression Pluviométrie
Cumul
25/09/2022 16:4018.6 °C59 %10.4 °C3 km/h10 km/h18.61018 hPa0.0 mm
25/09/2022 16:3018.6 °C61 %10.9 °C4 km/hNNO10 km/h18.61018 hPa0.0 mm
25/09/2022 16:1018.4 °C62 %11.0 °C4 km/h10 km/h18.41018 hPa0.0 mm
25/09/2022 16:0018.5 °C61 %10.8 °C4 km/h10 km/h18.51018 hPa0.0 mm
25/09/2022 15:4018.2 °C65 %11.5 °C5 km/hNNO16 km/h18.21018 hPa0.0 mm
25/09/2022 15:3017.7 °C66 %11.2 °C6 km/h13 km/h17.71018 hPa0.0 mm
25/09/2022 15:1017.0 °C67 %10.8 °C6 km/h10 km/h17.01018 hPa0.0 mm
25/09/2022 15:0016.6 °C69 %10.8 °C7 km/h15 km/h16.61018 hPa0.0 mm
25/09/2022 14:4016.3 °C72 %11.3 °C7 km/hNO16 km/h16.31018 hPa0.0 mm
25/09/2022 14:3016.2 °C72 %11.1 °C6 km/hNNO16 km/h16.21018 hPa0.0 mm
25/09/2022 14:1016.4 °C71 %11.2 °C5 km/hNNO15 km/h16.41018 hPa0.0 mm
25/09/2022 14:0015.8 °C73 %10.9 °C4 km/hNNO15 km/h15.81018 hPa0.0 mm
25/09/2022 13:4016.1 °C75 %11.7 °C4 km/hNNO10 km/h16.11018 hPa0.0 mm
25/09/2022 13:3014.8 °C78 %11.0 °C5 km/hNNO11 km/h14.81018 hPa0.0 mm
25/09/2022 13:1014.7 °C78 %10.9 °C4 km/h8 km/h14.71018 hPa0.0 mm
25/09/2022 13:0014.9 °C78 %11.1 °C4 km/hNNO10 km/h14.91018 hPa0.0 mm
25/09/2022 12:4014.6 °C80 %11.1 °C4 km/hNNO13 km/h14.61018 hPa0.0 mm
25/09/2022 12:3014.4 °C81 %11.2 °C3 km/hNNO11 km/h14.41018 hPa0.0 mm
25/09/2022 12:1014.2 °C82 %11.2 °C3 km/h10 km/h14.21018 hPa0.0 mm
25/09/2022 12:0014.1 °C82 %11.1 °C3 km/hNNO10 km/h14.11018 hPa0.0 mm
25/09/2022 11:4013.9 °C82 %10.9 °C3 km/h10 km/h13.91018 hPa0.0 mm
25/09/2022 11:3014.1 °C82 %11.0 °C4 km/h8 km/h14.11018 hPa0.0 mm
25/09/2022 11:1014.1 °C82 %11.1 °C4 km/h8 km/h14.11018 hPa0.0 mm
25/09/2022 11:0014.2 °C82 %11.1 °C4 km/h11 km/h14.21018 hPa0.0 mm
25/09/2022 10:4013.9 °C83 %11.1 °C4 km/h11 km/h13.91017 hPa0.0 mm
25/09/2022 10:3013.7 °C84 %11.1 °C4 km/h8 km/h13.71017 hPa0.0 mm
25/09/2022 10:1013.6 °C84 %11.0 °C3 km/h8 km/h13.61017 hPa0.0 mm
25/09/2022 10:0013.6 °C84 %11.0 °C3 km/hNNO11 km/h13.61017 hPa0.0 mm
25/09/2022 09:4013.4 °C85 %11.0 °C3 km/h10 km/h13.41017 hPa0.0 mm
25/09/2022 09:3013.3 °C85 %10.9 °C3 km/h6 km/h13.31017 hPa0.0 mm
25/09/2022 09:1013.3 °C85 %10.8 °C3 km/h10 km/h13.31017 hPa0.0 mm
25/09/2022 08:4013.1 °C87 %10.9 °C2 km/h10 km/h13.11017 hPa0.0 mm
25/09/2022 08:3013.0 °C88 %11.1 °C2 km/hNNO8 km/h13.01017 hPa0.0 mm
25/09/2022 07:4013.0 °C88 %11.1 °C2 km/h10 km/h13.01016 hPa0.0 mm
25/09/2022 07:3013.1 °C89 %11.3 °C2 km/h6 km/h13.11016 hPa0.0 mm
25/09/2022 06:4013.2 °C89 %11.4 °C2 km/hONO6 km/h13.21016 hPa0.0 mm
25/09/2022 06:1013.1 °C89 %11.3 °C1 km/hONO5 km/h13.11016 hPa0.0 mm
25/09/2022 05:4012.9 °C90 %11.3 °C1 km/hONO5 km/h12.91016 hPa0.0 mm
25/09/2022 05:3012.8 °C90 %11.2 °C1 km/hONO2 km/h12.81016 hPa0.0 mm
25/09/2022 04:4012.6 °C90 %11.0 °C-3 km/h12.61016 hPa0.0 mm
25/09/2022 04:3012.3 °C90 %10.7 °C-O3 km/h12.31016 hPa0.0 mm
25/09/2022 03:4011.9 °C90 %10.4 °C-ONO2 km/h11.91016 hPa0.0 mm
25/09/2022 03:0012.4 °C88 %10.5 °C1 km/hNO3 km/h12.41016 hPa0.0 mm
25/09/2022 02:4012.6 °C88 %10.7 °C1 km/hNO5 km/h12.61016 hPa0.0 mm


Minima :

Température : 11.9 °C
Humidité : 59 %
Point de rosée : 10.4 °C
Vent moyen : 1 km/h
Windchill : 11.9
Pression atm. : 1016 hPa
Maxima :

Température : 18.6 °C
Humidité : 90 %
Point de rosée : 11.7 °C
Vent moyen : 7 km/h
Windchill : 18.6
Pression atm. : 1018 hPa
Rafales max : 16 km/h
Cumul de pluie sur 24H : 0 mm

Athee-sur-Cher est une commune du département Indre-et-Loire (37).
La station météorologique du réseau de l'association la plus proche de Athée-sur-Cher est celle de Véretz



Icône Facebook Association Météo Centre Icône Twitter Association Météo Centre Icône Chaîne Youtube Association Météo Centre Icône contact Association Météo Centre Icône Insta Association Météo Centre